Time;durP1;ratioP1;P1;durP2;ratioP2;P2;SDS_P1;SDS_P2;PMS_P1;PMS_P2;Temp;Humidity;BMP_temperature;BMP_pressure;BME280_temperature;BME280_humidity;BME280_pressure;Samples;Min_cycle;Max_cycle;Signal;HPM_P1;HPM_P2
2023/07/02 04:00:38;;;;;;;31.23;8.03;;;14.70;99.90;;;;;;5938804;22;20342;-77
2023/07/02 04:03:04;;;;;;;25.73;8.32;;;14.70;99.90;;;;;;5033142;28;20041;-75
2023/07/02 04:05:29;;;;;;;27.45;7.97;;;14.70;99.90;;;;;;5033188;28;20034;-77
2023/07/02 04:07:55;;;;;;;27.27;8.23;;;14.80;99.90;;;;;;5016024;28;20522;-77
2023/07/02 04:10:21;;;;;;;25.38;8.05;;;14.80;99.90;;;;;;5015181;28;20045;-76
2023/07/02 04:12:47;;;;;;;20.77;8.25;;;14.80;99.90;;;;;;5015230;28;20037;-77
2023/07/02 04:15:12;;;;;;;26.52;8.13;;;14.70;99.90;;;;;;5032815;28;20091;-76
2023/07/02 04:17:38;;;;;;;22.55;7.90;;;14.70;99.90;;;;;;5015097;28;20038;-77
2023/07/02 04:20:04;;;;;;;21.88;7.45;;;14.70;99.90;;;;;;5015842;28;20110;-76
2023/07/02 04:22:30;;;;;;;28.10;8.73;;;14.70;99.90;;;;;;5032644;28;20497;-75
2023/07/02 04:24:56;;;;;;;24.63;8.23;;;14.70;99.90;;;;;;5016548;28;20140;-75
2023/07/02 04:27:22;;;;;;;24.92;8.52;;;14.70;99.90;;;;;;5036482;28;20124;-77
2023/07/02 04:29:47;;;;;;;33.30;9.45;;;14.70;99.90;;;;;;5018496;28;20073;-75
2023/07/02 04:32:13;;;;;;;28.42;8.90;;;14.80;99.90;;;;;;5036772;28;20037;-76
2023/07/02 04:34:38;;;;;;;25.80;7.65;;;14.80;99.90;;;;;;5018596;28;20033;-77
2023/07/02 04:37:05;;;;;;;27.63;7.90;;;14.80;99.90;;;;;;5018313;28;20446;-76
2023/07/02 04:39:31;;;;;;;29.70;8.52;;;14.80;99.90;;;;;;5018411;28;20041;-77
2023/07/02 04:41:56;;;;;;;29.20;8.75;;;14.80;99.90;;;;;;5018124;28;20102;-76
2023/07/02 04:44:28;;;;;;;22.35;6.93;;;14.90;99.90;;;;;;5018282;28;20065;-76
2023/07/02 04:46:59;;;;;;;23.40;7.50;;;14.90;99.90;;;;;;5018137;28;20091;-76
2023/07/02 04:49:25;;;;;;;23.83;7.68;;;15.00;99.90;;;;;;5018108;28;20120;-76
2023/07/02 04:51:51;;;;;;;23.77;7.22;;;15.00;99.90;;;;;;5035560;28;20033;-77
2023/07/02 04:54:16;;;;;;;20.65;6.70;;;15.00;99.90;;;;;;5018188;28;20400;-76
2023/07/02 04:56:42;;;;;;;19.90;6.78;;;15.10;99.90;;;;;;5017848;28;20037;-76
2023/07/02 04:59:07;;;;;;;21.77;6.40;;;15.10;99.90;;;;;;5017920;28;20041;-75
2023/07/02 05:01:33;;;;;;;19.15;6.60;;;15.10;99.90;;;;;;5035278;28;20037;-76
2023/07/02 05:03:58;;;;;;;26.38;6.70;;;15.30;99.90;;;;;;5017832;28;20033;-78
2023/07/02 05:06:29;;;;;;;21.17;6.57;;;15.30;99.90;;;;;;5018043;28;20167;-76
2023/07/02 05:08:55;;;;;;;24.88;6.45;;;15.30;99.90;;;;;;5017653;28;20045;-77
2023/07/02 05:11:20;;;;;;;21.75;7.18;;;15.40;99.90;;;;;;5017612;28;20148;-79
2023/07/02 05:13:46;;;;;;;26.88;6.47;;;15.50;99.90;;;;;;5017893;28;20041;-76
2023/07/02 05:16:12;;;;;;;20.73;6.60;;;15.50;99.90;;;;;;5018618;28;20346;-76
2023/07/02 05:18:37;;;;;;;27.45;7.30;;;15.60;99.90;;;;;;5018172;28;20479;-76
2023/07/02 05:21:03;;;;;;;21.63;6.78;;;15.60;99.90;;;;;;5017595;28;20119;-76
2023/07/02 05:23:28;;;;;;;27.48;6.82;;;15.70;99.90;;;;;;5017513;28;20087;-76
2023/07/02 05:25:54;;;;;;;27.90;7.43;;;15.60;99.90;;;;;;5017170;28;20099;-77
2023/07/02 05:28:20;;;;;;;23.50;7.18;;;15.60;99.90;;;;;;5017582;28;20099;-78
2023/07/02 05:30:45;;;;;;;22.95;7.28;;;15.60;99.90;;;;;;5017297;28;20124;-76
2023/07/02 05:33:11;;;;;;;25.90;7.38;;;15.60;99.90;;;;;;5035638;28;20033;-76
2023/07/02 05:35:36;;;;;;;26.80;7.47;;;15.60;99.90;;;;;;5018286;28;20067;-77
2023/07/02 05:38:02;;;;;;;28.75;6.68;;;15.60;99.90;;;;;;5017111;28;20041;-76
2023/07/02 05:40:27;;;;;;;18.63;6.90;;;15.60;99.90;;;;;;5017911;28;20033;-76
2023/07/02 05:42:53;;;;;;;26.15;6.85;;;15.60;99.90;;;;;;5017038;28;20168;-76
2023/07/02 05:45:19;;;;;;;19.48;6.55;;;15.60;99.90;;;;;;5017010;28;20041;-76
2023/07/02 05:47:44;;;;;;;23.48;6.68;;;15.70;99.90;;;;;;5016815;28;20075;-76
2023/07/02 05:50:10;;;;;;;23.27;7.15;;;15.70;99.90;;;;;;5017142;28;20120;-76
2023/07/02 05:52:36;;;;;;;24.92;7.90;;;15.70;99.90;;;;;;5016671;28;20049;-75
2023/07/02 05:55:01;;;;;;;33.33;7.70;;;15.70;99.90;;;;;;5017226;28;20041;-76
2023/07/02 05:57:27;;;;;;;21.95;6.80;;;15.70;99.90;;;;;;5018080;28;20073;-76
2023/07/02 05:59:53;;;;;;;23.05;6.78;;;15.80;99.90;;;;;;5001902;28;20041;-77
2023/07/02 06:02:18;;;;;;;20.23;7.25;;;15.70;99.90;;;;;;5034601;28;20041;-74
2023/07/02 06:04:44;;;;;;;18.92;6.18;;;15.70;99.90;;;;;;5017229;28;20191;-74
2023/07/02 06:07:09;;;;;;;20.90;6.15;;;15.70;99.90;;;;;;5016733;28;20124;-75
2023/07/02 06:09:35;;;;;;;22.90;7.28;;;15.70;99.90;;;;;;5016635;28;20132;-76
2023/07/02 06:12:01;;;;;;;19.13;6.05;;;15.60;99.90;;;;;;5016683;28;20045;-74
2023/07/02 06:14:26;;;;;;;17.30;6.22;;;15.60;99.90;;;;;;5016448;28;20063;-74
2023/07/02 06:16:52;;;;;;;21.98;7.15;;;15.60;99.90;;;;;;5034222;28;20030;-73
2023/07/02 06:19:18;;;;;;;21.60;6.80;;;15.70;99.90;;;;;;5016635;28;20120;-74
2023/07/02 06:21:44;;;;;;;19.42;6.80;;;15.70;99.90;;;;;;5033943;28;20120;-75
2023/07/02 06:24:09;;;;;;;22.80;6.55;;;15.70;99.90;;;;;;5016316;28;20467;-79
2023/07/02 06:26:35;;;;;;;19.50;6.07;;;15.90;99.90;;;;;;5016353;28;20049;-77
2023/07/02 06:29:01;;;;;;;20.02;6.25;;;16.00;99.90;;;;;;5016161;28;20049;-75
2023/07/02 06:31:26;;;;;;;19.08;6.07;;;16.10;99.90;;;;;;5033883;28;20049;-73
2023/07/02 06:33:52;;;;;;;16.50;5.88;;;16.10;99.90;;;;;;5015920;28;20120;-76
2023/07/02 06:36:19;;;;;;;16.27;5.40;;;16.10;99.90;;;;;;5017038;28;20134;-74
2023/07/02 06:38:45;;;;;;;17.17;5.68;;;16.10;99.90;;;;;;5016010;28;20152;-76
2023/07/02 06:41:10;;;;;;;15.10;5.30;;;16.00;99.90;;;;;;5016637;28;20473;-75
2023/07/02 06:43:36;;;;;;;17.83;5.43;;;15.90;99.90;;;;;;5015768;28;20128;-74
2023/07/02 06:46:02;;;;;;;16.23;4.90;;;15.90;99.90;;;;;;4999471;28;20041;-74
2023/07/02 06:48:27;;;;;;;16.30;5.00;;;15.70;99.90;;;;;;5033021;28;20045;-75
2023/07/02 06:50:53;;;;;;;19.98;5.50;;;15.70;99.90;;;;;;5015709;28;20077;-74
2023/07/02 06:53:19;;;;;;;19.00;5.53;;;15.70;99.90;;;;;;5033449;28;20116;-73
2023/07/02 06:55:44;;;;;;;20.58;6.15;;;15.70;99.90;;;;;;5015744;28;20411;-74
2023/07/02 06:58:10;;;;;;;19.45;4.22;;;15.80;99.90;;;;;;5033312;28;20041;-73
2023/07/02 07:00:36;;;;;;;18.13;4.72;;;15.80;99.90;;;;;;5015701;28;20136;-73
2023/07/02 07:03:05;;;;;;;16.48;3.95;;;16.00;99.90;;;;;;5015627;28;20128;-76
2023/07/02 07:05:31;;;;;;;22.17;4.22;;;16.20;99.90;;;;;;5033359;28;20062;-74
2023/07/02 07:07:59;;;;;;;18.45;4.05;;;16.20;99.90;;;;;;5033344;28;20049;-77
2023/07/02 07:10:25;;;;;;;13.68;4.13;;;16.20;99.90;;;;;;5015426;28;20137;-75
2023/07/02 07:12:50;;;;;;;15.73;4.57;;;16.20;99.90;;;;;;5015970;28;20123;-75
2023/07/02 07:15:16;;;;;;;16.65;4.28;;;16.20;99.90;;;;;;5015487;28;20045;-76
2023/07/02 07:17:42;;;;;;;14.80;4.50;;;16.30;99.90;;;;;;4999242;28;20104;-77
2023/07/02 07:20:08;;;;;;;15.65;5.13;;;16.30;99.90;;;;;;5015520;28;20121;-77
2023/07/02 07:22:34;;;;;;;15.98;4.13;;;16.30;99.90;;;;;;5015311;28;20041;-75
2023/07/02 07:24:59;;;;;;;12.75;4.07;;;16.30;99.90;;;;;;5033070;28;20422;-75
2023/07/02 07:27:25;;;;;;;15.95;4.18;;;16.20;99.90;;;;;;5016170;28;20045;-77
2023/07/02 07:29:51;;;;;;;11.77;3.30;;;16.20;99.90;;;;;;5015748;28;20085;-75
2023/07/02 07:32:16;;;;;;;14.32;3.97;;;16.10;99.90;;;;;;5015267;28;20068;-76
2023/07/02 07:34:42;;;;;;;14.63;3.97;;;16.10;99.90;;;;;;4998896;28;20080;-75
2023/07/02 07:37:08;;;;;;;12.48;3.35;;;16.20;99.90;;;;;;5015518;28;20128;-78
2023/07/02 07:39:33;;;;;;;14.27;4.15;;;16.30;99.90;;;;;;5015199;28;20537;-76
2023/07/02 07:41:59;;;;;;;16.17;4.05;;;16.40;99.90;;;;;;5015753;28;20052;-76
2023/07/02 07:44:28;;;;;;;8.82;2.85;;;16.50;99.90;;;;;;4999068;28;20506;-74
2023/07/02 07:46:57;;;;;;;12.20;3.60;;;16.60;99.90;;;;;;5015153;28;20045;-77
2023/07/02 07:49:23;;;;;;;18.05;3.55;;;16.80;99.90;;;;;;5015101;28;20041;-78
2023/07/02 07:51:49;;;;;;;9.68;3.35;;;16.80;99.90;;;;;;4998848;28;20052;-79
2023/07/02 07:54:14;;;;;;;11.43;3.42;;;16.80;99.90;;;;;;5015161;28;20038;-76
2023/07/02 07:56:40;;;;;;;18.80;4.28;;;16.80;99.90;;;;;;5015385;28;20045;-80
2023/07/02 07:59:05;;;;;;;14.20;3.60;;;16.70;99.90;;;;;;5033068;28;20084;-74
2023/07/02 08:01:31;;;;;;;11.07;4.10;;;16.60;99.90;;;;;;5036580;28;20037;-73
2023/07/02 08:03:57;;;;;;;14.95;3.50;;;16.60;99.90;;;;;;5018903;28;20481;-74
2023/07/02 08:06:22;;;;;;;14.38;3.33;;;16.60;99.90;;;;;;5019117;28;20060;-74
2023/07/02 08:08:48;;;;;;;19.95;5.72;;;16.60;99.90;;;;;;5018945;28;20506;-74
2023/07/02 08:11:13;;;;;;;12.23;3.70;;;16.70;99.90;;;;;;5036257;28;20079;-75
2023/07/02 08:13:39;;;;;;;10.63;3.90;;;16.80;99.90;;;;;;5018930;28;20042;-75
2023/07/02 08:16:05;;;;;;;10.73;3.95;;;16.80;99.90;;;;;;5018926;28;20342;-74
2023/07/02 08:18:30;;;;;;;13.05;4.03;;;16.80;99.90;;;;;;5018446;28;20038;-74
2023/07/02 08:20:56;;;;;;;13.25;4.75;;;16.90;99.90;;;;;;5036160;28;20038;-75
2023/07/02 08:23:22;;;;;;;10.48;3.80;;;16.90;99.90;;;;;;5018884;28;20041;-73
2023/07/02 08:25:47;;;;;;;14.75;3.90;;;16.90;99.90;;;;;;5018889;28;20072;-74
2023/07/02 08:28:13;;;;;;;13.57;4.00;;;16.90;99.90;;;;;;5018080;28;20081;-72
2023/07/02 08:30:39;;;;;;;13.02;4.25;;;16.80;99.90;;;;;;5036279;28;20110;-73
2023/07/02 08:33:04;;;;;;;12.65;4.43;;;16.70;99.90;;;;;;5018546;28;20053;-73
2023/07/02 08:35:30;;;;;;;9.77;3.30;;;16.70;99.90;;;;;;5018214;28;20049;-73
2023/07/02 08:37:56;;;;;;;12.60;5.18;;;16.60;99.90;;;;;;5018189;28;20055;-73
2023/07/02 08:40:22;;;;;;;19.83;4.90;;;16.60;99.90;;;;;;5017803;28;20077;-74
2023/07/02 08:42:48;;;;;;;14.43;4.75;;;16.50;99.90;;;;;;5016756;28;20529;-75
2023/07/02 08:45:17;;;;;;;14.95;4.20;;;16.40;99.90;;;;;;5016865;28;20417;-74
2023/07/02 08:47:45;;;;;;;17.15;4.72;;;16.30;99.90;;;;;;5016966;28;20389;-71
2023/07/02 08:50:14;;;;;;;16.38;5.72;;;16.20;99.90;;;;;;5016837;28;20461;-75
2023/07/02 08:52:40;;;;;;;15.18;4.47;;;16.40;99.90;;;;;;5016764;28;20049;-73
2023/07/02 08:55:06;;;;;;;11.65;3.65;;;16.50;99.90;;;;;;5034378;28;20033;-73
2023/07/02 08:57:33;;;;;;;13.13;4.53;;;16.70;99.90;;;;;;5034978;28;20103;-74
2023/07/02 08:59:59;;;;;;;13.18;3.90;;;16.70;99.90;;;;;;5017637;28;20042;-73
2023/07/02 09:02:34;;;;;;;14.85;4.55;;;16.80;99.90;;;;;;5017812;28;20397;-74
2023/07/02 09:05:00;;;;;;;10.85;4.15;;;17.00;99.90;;;;;;5017641;28;20042;-73
2023/07/02 09:07:26;;;;;;;13.60;4.28;;;17.00;99.90;;;;;;5018149;28;20108;-73
2023/07/02 09:09:51;;;;;;;14.48;3.90;;;17.10;99.90;;;;;;5017425;28;20156;-73
2023/07/02 09:12:28;;;;;;;20.17;4.88;;;17.00;99.90;;;;;;5017222;28;20041;-74
2023/07/02 09:15:03;;;;;;;13.73;4.35;;;17.20;99.90;;;;;;5017597;28;20096;-74
2023/07/02 09:17:34;;;;;;;12.07;3.92;;;17.40;99.90;;;;;;5035438;28;20037;-74
2023/07/02 09:20:02;;;;;;;13.77;4.00;;;17.40;99.90;;;;;;5017432;28;20049;-74
2023/07/02 09:22:28;;;;;;;10.65;3.85;;;17.40;99.90;;;;;;5000972;28;20116;-73
2023/07/02 09:24:57;;;;;;;12.48;3.78;;;17.50;99.90;;;;;;5017161;28;20068;-72
2023/07/02 09:27:34;;;;;;;12.55;4.05;;;17.50;99.90;;;;;;5017496;28;20041;-76
2023/07/02 09:30:18;;;;;;;15.13;3.42;;;17.40;99.90;;;;;;5018260;28;20374;-73
2023/07/02 09:32:45;;;;;;;10.55;3.13;;;17.30;99.90;;;;;;5035192;28;20041;-73
2023/07/02 09:35:11;;;;;;;14.25;3.33;;;17.30;99.90;;;;;;5034848;28;20037;-74
2023/07/02 09:37:39;;;;;;;11.13;3.80;;;17.30;99.90;;;;;;5034745;28;20042;-74
2023/07/02 09:40:07;;;;;;;12.48;4.22;;;17.50;99.90;;;;;;5017041;28;20041;-72
2023/07/02 09:42:34;;;;;;;14.80;4.13;;;17.60;99.90;;;;;;5016930;28;20073;-73
2023/07/02 09:45:01;;;;;;;13.75;4.80;;;17.70;99.90;;;;;;5034817;28;20045;-73
2023/07/02 09:47:31;;;;;;;15.55;4.63;;;17.60;99.90;;;;;;5016761;28;20037;-74
2023/07/02 09:50:07;;;;;;;13.30;4.05;;;17.40;99.90;;;;;;5000810;28;20049;-74
2023/07/02 09:52:34;;;;;;;12.75;3.90;;;17.20;99.90;;;;;;5016657;28;20508;-73
2023/07/02 09:55:00;;;;;;;17.77;4.20;;;17.10;99.90;;;;;;5016676;28;20116;-74
2023/07/02 09:57:27;;;;;;;17.58;4.35;;;17.40;99.90;;;;;;5016568;28;20130;-72
2023/07/02 09:59:53;;;;;;;15.82;4.40;;;17.60;99.90;;;;;;5016555;28;20051;-73
2023/07/02 10:02:18;;;;;;;13.55;3.70;;;17.70;99.90;;;;;;5016388;28;20121;-74
2023/07/02 10:04:46;;;;;;;13.25;3.72;;;17.80;99.90;;;;;;5034224;28;20400;-73
2023/07/02 10:07:13;;;;;;;13.27;3.65;;;17.70;99.90;;;;;;5016299;28;20125;-74
2023/07/02 10:09:46;;;;;;;10.07;3.33;;;17.60;99.90;;;;;;5016448;28;20052;-74
2023/07/02 10:12:23;;;;;;;14.20;3.83;;;17.50;99.90;;;;;;5016387;28;20049;-72
2023/07/02 10:14:50;;;;;;;12.73;3.90;;;17.40;99.90;;;;;;5016435;28;20046;-74
2023/07/02 10:17:30;;;;;;;15.68;3.40;;;17.50;99.90;;;;;;5016279;28;20076;-74
2023/07/02 10:19:59;;;;;;;13.02;3.60;;;17.80;99.90;;;;;;5034596;28;20073;-73
2023/07/02 10:22:25;;;;;;;10.07;3.15;;;18.20;99.90;;;;;;5033535;28;20420;-72
2023/07/02 10:24:52;;;;;;;12.90;3.60;;;18.30;99.90;;;;;;5016375;28;20038;-75
2023/07/02 10:27:18;;;;;;;13.30;4.00;;;18.20;99.90;;;;;;5034126;28;20120;-73
2023/07/02 10:29:50;;;;;;;12.93;3.55;;;18.00;99.90;;;;;;5016086;28;20102;-72
2023/07/02 10:32:27;;;;;;;12.45;3.45;;;17.80;99.90;;;;;;5015917;28;20141;-74
2023/07/02 10:34:53;;;;;;;15.93;3.60;;;17.70;99.90;;;;;;5016038;28;20047;-72
2023/07/02 10:37:19;;;;;;;14.65;4.30;;;17.60;99.90;;;;;;5033899;28;20140;-74
2023/07/02 10:39:45;;;;;;;11.50;3.70;;;17.40;99.90;;;;;;5033633;28;20045;-75
2023/07/02 10:42:10;;;;;;;13.45;4.28;;;17.40;99.90;;;;;;5015831;28;20044;-72
2023/07/02 10:44:51;;;;;;;11.68;3.75;;;17.40;99.90;;;;;;5015826;28;20033;-71
2023/07/02 10:47:17;;;;;;;15.18;4.18;;;17.60;99.90;;;;;;5033696;28;20106;-72
2023/07/02 10:49:42;;;;;;;14.20;3.95;;;17.80;99.90;;;;;;5015733;28;20046;-73
2023/07/02 10:52:08;;;;;;;15.23;4.28;;;18.00;99.90;;;;;;5033419;28;20034;-72
2023/07/02 10:54:44;;;;;;;13.25;4.05;;;18.10;99.90;;;;;;5016009;28;20030;-74
2023/07/02 10:57:12;;;;;;;12.40;4.13;;;18.00;99.90;;;;;;5015610;28;20041;-73
2023/07/02 10:59:38;;;;;;;16.08;4.00;;;18.00;99.90;;;;;;5015503;28;20037;-75
2023/07/02 11:02:04;;;;;;;14.98;4.20;;;17.90;99.90;;;;;;5033061;28;20037;-74
2023/07/02 11:04:31;;;;;;;13.82;4.35;;;17.80;99.90;;;;;;5015484;28;20042;-76
2023/07/02 11:06:57;;;;;;;9.43;3.08;;;17.90;99.90;;;;;;5033711;28;20041;-74
2023/07/02 11:09:24;;;;;;;14.43;3.47;;;17.90;99.90;;;;;;4999225;28;20392;-72
2023/07/02 11:12:01;;;;;;;9.93;3.05;;;17.70;99.90;;;;;;5015751;28;20120;-74
2023/07/02 11:14:32;;;;;;;10.15;3.50;;;17.60;99.90;;;;;;5032949;28;20116;-71
2023/07/02 11:16:59;;;;;;;14.93;3.90;;;17.80;99.90;;;;;;5015267;28;20113;-74
2023/07/02 11:19:25;;;;;;;13.25;3.00;;;18.00;99.90;;;;;;5033809;28;20041;-73
2023/07/02 11:21:53;;;;;;;20.60;3.75;;;18.10;99.90;;;;;;5015224;28;20456;-72
2023/07/02 11:24:28;;;;;;;15.35;3.42;;;18.10;99.90;;;;;;5033196;28;20389;-73
2023/07/02 11:26:53;;;;;;;14.60;2.97;;;18.00;99.90;;;;;;5033415;28;20384;-76
2023/07/02 11:29:19;;;;;;;8.82;2.38;;;18.10;99.90;;;;;;5033412;28;20122;-74
2023/07/02 11:31:44;;;;;;;9.05;2.60;;;18.00;99.90;;;;;;5015107;28;20512;-74
2023/07/02 11:34:21;;;;;;;11.13;2.85;;;18.10;99.90;;;;;;5034886;28;20030;-72
2023/07/02 11:36:47;;;;;;;8.55;2.75;;;18.30;99.90;;;;;;5019302;28;20037;-74
2023/07/02 11:39:15;;;;;;;11.00;2.63;;;18.40;99.90;;;;;;5019176;28;20049;-73
2023/07/02 11:41:42;;;;;;;8.52;2.42;;;18.40;99.90;;;;;;5019102;28;20124;-72
2023/07/02 11:44:08;;;;;;;10.98;2.63;;;18.60;99.90;;;;;;5019197;28;20046;-75
2023/07/02 11:46:34;;;;;;;10.00;3.03;;;18.60;99.90;;;;;;5019081;28;20044;-76
2023/07/02 11:49:01;;;;;;;9.55;2.72;;;18.70;99.90;;;;;;5019120;28;20042;-74
2023/07/02 11:51:27;;;;;;;11.40;2.42;;;18.80;99.90;;;;;;5018916;28;20057;-73
2023/07/02 11:53:53;;;;;;;10.77;3.17;;;19.00;99.90;;;;;;5018986;28;20050;-76
2023/07/02 11:56:19;;;;;;;11.52;2.60;;;19.00;99.90;;;;;;5018880;28;20052;-73
2023/07/02 11:58:44;;;;;;;11.57;2.90;;;18.70;99.90;;;;;;5018882;28;20414;-72
2023/07/02 12:01:10;;;;;;;11.20;2.90;;;18.50;99.90;;;;;;5018628;28;20048;-71
2023/07/02 12:03:35;;;;;;;7.15;2.20;;;18.40;99.90;;;;;;5018804;28;20041;-74
2023/07/02 12:06:01;;;;;;;10.02;2.95;;;18.30;99.90;;;;;;5036461;28;20041;-75
2023/07/02 12:08:27;;;;;;;9.50;2.53;;;18.30;99.90;;;;;;5018509;28;20378;-72
2023/07/02 12:10:52;;;;;;;10.88;2.80;;;18.30;99.90;;;;;;5036376;28;20034;-75
2023/07/02 12:13:20;;;;;;;12.48;2.80;;;18.30;99.90;;;;;;5036609;28;20052;-73
2023/07/02 12:15:47;;;;;;;10.07;2.85;;;18.20;99.90;;;;;;5018513;28;20075;-74
2023/07/02 12:18:12;;;;;;;7.47;2.95;;;18.20;99.90;;;;;;5036044;28;20499;-74
2023/07/02 12:20:40;;;;;;;11.05;3.08;;;18.20;99.90;;;;;;5018486;28;20037;-74
2023/07/02 12:23:05;;;;;;;11.10;3.00;;;18.10;99.90;;;;;;5036805;28;20372;-73
2023/07/02 12:25:31;;;;;;;13.68;3.53;;;18.30;99.90;;;;;;5019236;28;20037;-73
2023/07/02 12:27:57;;;;;;;9.20;3.08;;;18.20;99.90;;;;;;5020016;28;20091;-74
2023/07/02 12:30:23;;;;;;;9.77;3.25;;;18.20;99.90;;;;;;5018427;28;20045;-75
2023/07/02 12:32:48;;;;;;;9.60;3.30;;;17.90;99.90;;;;;;5036843;28;20040;-73
2023/07/02 12:35:14;;;;;;;11.05;3.40;;;17.90;99.90;;;;;;5036281;28;20049;-74
2023/07/02 12:37:49;;;;;;;14.40;4.18;;;17.90;99.90;;;;;;5018599;28;20048;-73
2023/07/02 12:40:15;;;;;;;13.73;3.95;;;18.00;99.90;;;;;;5018415;28;20165;-71
2023/07/02 12:42:42;;;;;;;9.85;4.50;;;18.00;99.90;;;;;;5036284;28;20045;-74
2023/07/02 12:45:08;;;;;;;13.40;4.00;;;18.20;99.90;;;;;;5017217;28;20148;-73
2023/07/02 12:47:34;;;;;;;11.48;3.88;;;18.60;99.90;;;;;;5018122;28;20128;-75
2023/07/02 12:50:00;;;;;;;11.85;4.07;;;18.90;99.90;;;;;;5017835;28;20437;-73
2023/07/02 12:52:26;;;;;;;8.85;4.00;;;18.90;99.90;;;;;;5018775;28;20052;-73
2023/07/02 12:54:51;;;;;;;13.88;4.95;;;18.90;99.90;;;;;;5017755;28;20049;-74
2023/07/02 12:57:17;;;;;;;13.18;3.88;;;19.00;99.90;;;;;;5035649;28;20041;-75
2023/07/02 12:59:43;;;;;;;11.77;4.53;;;19.10;99.90;;;;;;5035363;28;20033;-74
2023/07/02 13:02:10;;;;;;;10.77;4.40;;;19.30;99.90;;;;;;5017368;28;20091;-73
2023/07/02 13:04:36;;;;;;;11.65;4.40;;;19.50;99.90;;;;;;5017845;28;20052;-75
2023/07/02 13:07:02;;;;;;;9.25;4.05;;;19.50;99.90;;;;;;5001248;28;20477;-76
2023/07/02 13:09:27;;;;;;;9.75;4.07;;;19.40;99.90;;;;;;5035556;28;20033;-74
2023/07/02 13:11:53;;;;;;;13.02;4.13;;;19.50;99.90;;;;;;5017364;28;20045;-74
2023/07/02 13:14:19;;;;;;;8.02;3.67;;;19.50;99.90;;;;;;5035314;28;20033;-74
2023/07/02 13:16:44;;;;;;;11.95;3.92;;;19.60;99.90;;;;;;5017330;28;20157;-74
2023/07/02 13:19:10;;;;;;;10.20;3.55;;;19.60;99.90;;;;;;5017270;28;20068;-75
2023/07/02 13:21:36;;;;;;;11.15;4.40;;;19.70;99.90;;;;;;5000819;28;20457;-73
2023/07/02 13:24:02;;;;;;;9.05;3.97;;;19.50;99.90;;;;;;5017506;28;20048;-76
2023/07/02 13:26:28;;;;;;;15.25;4.35;;;19.30;99.90;;;;;;5017199;28;20049;-75
2023/07/02 13:28:53;;;;;;;10.70;3.85;;;19.10;99.90;;;;;;5017390;28;20041;-76
2023/07/02 13:31:19;;;;;;;9.65;3.80;;;18.90;99.90;;;;;;5017075;28;20432;-75
2023/07/02 13:33:46;;;;;;;10.52;4.75;;;19.00;99.90;;;;;;5034791;28;20095;-71
2023/07/02 13:36:12;;;;;;;16.00;4.15;;;19.00;99.90;;;;;;5016876;28;20097;-73
2023/07/02 13:38:38;;;;;;;10.20;3.75;;;18.90;99.90;;;;;;5016897;28;20408;-72
2023/07/02 13:41:03;;;;;;;9.20;4.22;;;18.80;99.90;;;;;;5016908;28;20120;-76
2023/07/02 13:43:29;;;;;;;11.32;4.50;;;18.70;99.90;;;;;;5016792;28;20116;-74
2023/07/02 13:45:55;;;;;;;11.32;4.10;;;18.70;99.90;;;;;;5034609;28;20046;-75
2023/07/02 13:48:20;;;;;;;10.68;4.38;;;18.60;99.90;;;;;;5034486;28;20041;-74
2023/07/02 13:50:46;;;;;;;11.05;4.50;;;18.70;99.90;;;;;;5016677;28;20041;-74
2023/07/02 13:53:14;;;;;;;12.85;4.18;;;18.80;99.90;;;;;;5000291;28;20046;-72
2023/07/02 13:55:40;;;;;;;12.32;4.15;;;18.70;99.90;;;;;;5016621;28;20056;-72
2023/07/02 13:58:05;;;;;;;10.63;4.53;;;18.80;99.90;;;;;;5015533;28;20042;-75
2023/07/02 14:00:31;;;;;;;9.30;3.83;;;18.70;99.90;;;;;;5016410;28;20496;-74
2023/07/02 14:02:57;;;;;;;11.98;4.63;;;18.90;99.90;;;;;;5034511;28;20420;-73
2023/07/02 14:05:23;;;;;;;10.57;3.67;;;18.90;99.90;;;;;;5034298;28;20386;-73
2023/07/02 14:07:49;;;;;;;11.25;4.15;;;18.80;99.90;;;;;;5016496;28;20142;-73
2023/07/02 14:10:15;;;;;;;9.60;3.85;;;18.80;99.90;;;;;;5016655;28;20470;-75
2023/07/02 14:12:41;;;;;;;8.82;4.13;;;18.70;99.90;;;;;;5016294;28;20073;-76
2023/07/02 14:15:08;;;;;;;11.13;4.07;;;18.60;99.90;;;;;;5016606;28;20045;-74
2023/07/02 14:17:34;;;;;;;16.23;4.50;;;18.60;99.90;;;;;;5016035;28;20046;-74
2023/07/02 14:20:01;;;;;;;13.18;4.47;;;18.60;99.90;;;;;;5016290;28;20037;-76
2023/07/02 14:22:27;;;;;;;7.45;3.55;;;18.60;99.90;;;;;;5016203;28;20038;-72
2023/07/02 14:24:52;;;;;;;8.75;3.88;;;18.80;99.90;;;;;;5016142;28;20037;-72
2023/07/02 14:27:18;;;;;;;11.63;3.83;;;18.80;99.90;;;;;;5034032;28;20033;-76
2023/07/02 14:29:44;;;;;;;10.30;4.07;;;18.80;99.90;;;;;;5034276;28;20535;-75
2023/07/02 14:32:09;;;;;;;14.32;3.97;;;18.60;99.90;;;;;;5015838;28;20065;-77
2023/07/02 14:34:35;;;;;;;9.07;3.53;;;18.40;99.90;;;;;;5015995;28;20178;-74
2023/07/02 14:37:03;;;;;;;11.13;4.18;;;18.30;99.90;;;;;;5016068;28;20095;-74
2023/07/02 14:39:28;;;;;;;12.48;4.32;;;18.30;99.90;;;;;;5016120;28;20037;-76
2023/07/02 14:41:54;;;;;;;9.43;3.85;;;18.30;99.90;;;;;;5034099;28;20049;-74
2023/07/02 14:44:20;;;;;;;11.23;4.50;;;18.30;99.90;;;;;;5033761;28;20033;-76
2023/07/02 14:46:45;;;;;;;9.13;3.25;;;18.30;99.90;;;;;;5033424;28;20116;-74
2023/07/02 14:49:11;;;;;;;11.75;3.70;;;18.30;99.90;;;;;;5015698;28;20045;-74
2023/07/02 14:51:36;;;;;;;12.80;4.00;;;18.20;99.90;;;;;;5033175;28;20037;-75
2023/07/02 14:54:03;;;;;;;9.85;3.72;;;18.20;99.90;;;;;;5033253;28;20052;-75
2023/07/02 14:56:30;;;;;;;11.45;4.05;;;18.20;99.90;;;;;;5033763;28;20040;-74
2023/07/02 14:58:56;;;;;;;8.10;3.58;;;18.50;99.90;;;;;;5015382;28;20052;-76
2023/07/02 15:01:21;;;;;;;7.82;3.60;;;18.70;99.90;;;;;;5015600;28;20049;-73
2023/07/02 15:03:47;;;;;;;7.70;3.40;;;18.80;99.90;;;;;;5015379;28;20060;-73
2023/07/02 15:06:15;;;;;;;9.32;3.35;;;18.80;99.90;;;;;;5015373;28;20046;-72
2023/07/02 15:08:41;;;;;;;8.77;3.28;;;18.80;99.90;;;;;;5015413;28;20056;-73
2023/07/02 15:11:09;;;;;;;9.88;2.92;;;18.80;99.90;;;;;;5015208;28;20124;-74
2023/07/02 15:13:35;;;;;;;12.40;3.40;;;19.10;99.90;;;;;;5015403;28;20052;-74
2023/07/02 15:16:01;;;;;;;9.32;3.08;;;19.30;99.90;;;;;;5015618;28;20041;-74
2023/07/02 15:18:27;;;;;;;9.32;3.47;;;19.10;99.90;;;;;;5015231;28;20038;-74
2023/07/02 15:20:54;;;;;;;8.00;3.45;;;19.00;99.90;;;;;;5032952;28;20088;-74
2023/07/02 15:23:21;;;;;;;12.68;3.42;;;19.00;99.90;;;;;;5033600;28;20063;-74
2023/07/02 15:25:54;;;;;;;13.45;3.70;;;19.10;99.90;;;;;;5015191;28;20485;-75
2023/07/02 15:28:20;;;;;;;10.13;3.65;;;19.20;99.90;;;;;;5015181;28;20103;-75
2023/07/02 15:30:50;;;;;;;9.48;3.20;;;19.40;99.90;;;;;;5015323;28;20451;-75
2023/07/02 15:33:16;;;;;;;11.07;3.70;;;19.20;99.90;;;;;;5015168;28;20041;-74
2023/07/02 15:35:42;;;;;;;11.32;3.90;;;19.10;99.90;;;;;;5015376;28;20128;-75
2023/07/02 15:38:07;;;;;;;13.52;3.67;;;18.90;99.90;;;;;;5015237;28;20038;-71
2023/07/02 15:40:33;;;;;;;11.82;3.95;;;18.90;99.90;;;;;;5015060;28;20077;-71
2023/07/02 15:42:59;;;;;;;16.15;4.18;;;18.80;99.90;;;;;;5032784;28;20112;-76
2023/07/02 15:45:24;;;;;;;8.48;3.45;;;18.70;99.90;;;;;;5015085;28;20041;-75
2023/07/02 15:47:50;;;;;;;11.10;3.83;;;18.70;99.90;;;;;;5015031;28;20057;-74
2023/07/02 15:50:16;;;;;;;8.65;3.53;;;18.90;99.90;;;;;;5014935;28;20045;-72
2023/07/02 15:52:41;;;;;;;11.35;3.97;;;18.80;99.90;;;;;;5032796;28;20037;-74
2023/07/02 15:55:07;;;;;;;9.52;3.80;;;18.80;99.90;;;;;;5015255;28;20064;-77
2023/07/02 15:57:33;;;;;;;11.68;4.50;;;18.70;99.90;;;;;;5015128;28;20045;-74
2023/07/02 15:59:59;;;;;;;11.30;4.07;;;18.80;99.90;;;;;;5032894;28;20034;-75
2023/07/02 16:02:24;;;;;;;10.75;3.80;;;18.80;99.90;;;;;;5032406;28;20037;-74
2023/07/02 16:04:50;;;;;;;8.20;3.55;;;18.80;99.90;;;;;;5014898;28;20091;-74
2023/07/02 16:07:15;;;;;;;13.27;4.82;;;18.80;99.90;;;;;;5032486;28;20046;-75
2023/07/02 16:09:41;;;;;;;9.68;3.90;;;18.60;99.90;;;;;;5014779;28;20037;-76
2023/07/02 16:12:08;;;;;;;12.73;4.03;;;18.60;99.90;;;;;;5014982;28;20370;-75
2023/07/02 16:14:35;;;;;;;8.75;3.70;;;18.50;99.90;;;;;;5015079;28;20421;-73
2023/07/02 16:17:01;;;;;;;8.40;3.75;;;18.50;99.90;;;;;;5014745;28;20124;-73
2023/07/02 16:19:27;;;;;;;9.68;4.43;;;18.40;99.90;;;;;;5014583;28;20136;-75
2023/07/02 16:21:53;;;;;;;10.82;4.25;;;18.50;99.90;;;;;;5017406;28;20551;-75
2023/07/02 16:24:23;;;;;;;10.70;3.83;;;18.50;99.90;;;;;;5018364;28;20037;-75
2023/07/02 16:26:49;;;;;;;15.13;4.50;;;18.50;99.90;;;;;;5019301;28;20041;-74
2023/07/02 16:29:15;;;;;;;8.57;3.83;;;18.50;99.90;;;;;;5002123;28;20489;-73
2023/07/02 16:31:48;;;;;;;13.00;4.45;;;18.50;99.90;;;;;;5035938;28;20049;-75
2023/07/02 16:34:17;;;;;;;11.43;3.92;;;18.40;99.90;;;;;;5018232;28;20076;-75